Addington, Oklahoma
Current Conditions -  °F | °C
As of 6:35 PM on Saturday 20 Dec 2014 (Local Time) from KDUC Reporting Station
Overcast Overcast  
Wind Chill: 40°   Ceiling: 2600
Heat Index: 43°   Visibility: NA
Dew Point: 41°   Wind: 5mph
Humidity: 93%   Direction: 110°ESE
Pressure: 30.15"   Gusts: NA
Location:  34.24°N, 97.97°W
Report Text: KDUC 210035Z AUTO 11004KT OVC026 06/05 A3015 RMK AO2 PWINO
Loading
Personal Weather Stations






























Interactive Weather Map New forecast layout! Learn more

10-Day Weather Forecast

Advertisements
Track Severe Weather on mobile